Time;durP1;ratioP1;P1;durP2;ratioP2;P2;SDS_P1;SDS_P2;PMS_P1;PMS_P2;Temp;Humidity;BMP_temperature;BMP_pressure;BME280_temperature;BME280_humidity;BME280_pressure;Samples;Min_cycle;Max_cycle;Signal;HPM_P1;HPM_P2
2021/05/23 00:00:33;;;;;;;13.93;11.57;;;;;;;11.61;76.24;100811.03;5123365;28;20053;-47
2021/05/23 00:03:04;;;;;;;14.52;12.68;;;;;;;11.59;76.17;100807.75;5109850;27;20048;-47
2021/05/23 00:05:33;;;;;;;17.90;14.32;;;;;;;11.61;76.30;100804.75;5109738;28;20059;-49
2021/05/23 00:08:07;;;;;;;18.40;15.50;;;;;;;11.60;76.30;100808.59;5109331;28;20036;-48
2021/05/23 00:10:38;;;;;;;18.23;14.95;;;;;;;11.58;76.68;100808.88;5109477;28;20035;-48
2021/05/23 00:13:06;;;;;;;18.15;15.93;;;;;;;11.58;76.58;100806.13;5114429;28;20093;-50
2021/05/23 00:15:40;;;;;;;18.83;15.68;;;;;;;11.55;76.64;100814.06;5118434;27;20036;-49
2021/05/23 00:18:09;;;;;;;19.95;17.33;;;;;;;11.55;76.15;100816.78;5109207;28;20032;-49
2021/05/23 00:20:38;;;;;;;22.10;18.42;;;;;;;11.57;76.64;100804.50;5109732;28;20058;-49
2021/05/23 00:23:08;;;;;;;19.58;17.33;;;;;;;11.61;76.16;100812.94;5108868;28;20028;-49
2021/05/23 00:25:36;;;;;;;22.90;19.35;;;;;;;11.57;76.60;100811.84;5109431;28;20101;-50
2021/05/23 00:28:04;;;;;;;21.90;18.95;;;;;;;11.56;76.64;100808.31;5109071;28;20450;-49
2021/05/23 00:30:33;;;;;;;23.90;19.30;;;;;;;11.54;76.00;100817.88;5108353;28;20564;-49
2021/05/23 00:33:01;;;;;;;21.63;18.85;;;;;;;11.55;75.99;100811.34;5109306;28;20044;-50
2021/05/23 00:35:29;;;;;;;22.13;19.23;;;;;;;11.57;75.89;100820.03;5108062;28;20044;-48
2021/05/23 00:37:57;;;;;;;21.35;19.05;;;;;;;11.58;75.99;100817.06;5108683;28;20101;-49
2021/05/23 00:40:24;;;;;;;20.17;17.98;;;;;;;11.56;75.99;100813.78;5109078;28;20040;-50
2021/05/23 00:42:52;;;;;;;21.02;18.67;;;;;;;11.52;76.58;100818.97;5109008;28;20048;-49
2021/05/23 00:45:20;;;;;;;22.08;18.85;;;;;;;11.49;76.19;100819.50;5109146;28;20036;-50
2021/05/23 00:47:48;;;;;;;21.08;18.00;;;;;;;11.49;76.56;100816.78;5109201;28;20101;-51
2021/05/23 00:50:22;;;;;;;21.27;18.70;;;;;;;11.48;76.28;100820.59;5108799;28;20444;-51
2021/05/23 00:52:50;;;;;;;23.40;19.30;;;;;;;11.50;76.38;100814.88;5108436;28;20055;-52
2021/05/23 00:55:19;;;;;;;20.70;18.27;;;;;;;11.49;76.88;100818.69;5107124;28;20094;-52
2021/05/23 00:57:48;;;;;;;22.02;18.42;;;;;;;11.49;76.56;100818.69;5108753;28;20043;-50
2021/05/23 01:00:46;;;;;;;20.83;17.27;;;;;;;11.49;76.83;100819.50;5108599;28;20048;-52
2021/05/23 01:03:31;;;;;;;24.15;20.55;;;;;;;11.51;76.30;100817.31;5026186;28;20588;-49
2021/05/23 01:06:07;;;;;;;21.07;18.33;;;;;;;11.52;76.65;100821.72;5017275;28;20045;-49
2021/05/23 01:08:38;;;;;;;20.63;18.43;;;;;;;11.49;76.69;100818.69;5013368;28;20096;-53
2021/05/23 01:11:14;;;;;;;22.33;18.10;;;;;;;11.49;76.37;100822.22;5012832;28;20060;-52
2021/05/23 01:14:15;;;;;;;23.02;18.88;;;;;;;11.50;76.09;100821.16;5012969;28;20050;-51
2021/05/23 01:16:52;;;;;;;20.92;18.60;;;;;;;11.45;76.22;100823.91;5012877;28;20038;-51
2021/05/23 01:19:40;;;;;;;21.35;19.02;;;;;;;11.41;76.38;100833.72;5012663;28;20113;-49
2021/05/23 01:22:42;;;;;;;22.70;20.23;;;;;;;11.40;76.75;100837.53;5012375;28;20046;-52
2021/05/23 01:25:21;;;;;;;22.02;19.02;;;;;;;11.41;76.80;100839.16;5012347;28;20050;-48
2021/05/23 01:27:50;;;;;;;22.45;19.17;;;;;;;11.43;76.97;100839.72;5012371;28;20049;-48
2021/05/23 01:30:23;;;;;;;21.20;18.75;;;;;;;11.41;77.18;100839.16;5012257;28;20045;-48
2021/05/23 01:32:58;;;;;;;21.00;18.05;;;;;;;11.41;77.22;100839.16;5012412;28;20088;-49
2021/05/23 01:35:35;;;;;;;20.02;16.98;;;;;;;11.41;77.07;100833.72;5011754;28;20416;-50
2021/05/23 01:38:06;;;;;;;19.65;17.33;;;;;;;11.42;76.73;100840.78;5011982;28;20516;-52
2021/05/23 01:40:34;;;;;;;19.80;17.30;;;;;;;11.43;76.29;100842.44;5083612;28;20514;-49
2021/05/23 01:43:03;;;;;;;19.95;17.77;;;;;;;11.41;76.38;100838.34;5094304;28;20117;-48
2021/05/23 01:45:32;;;;;;;20.50;17.98;;;;;;;11.36;76.81;100836.44;5093266;28;20043;-49
2021/05/23 01:48:01;;;;;;;17.13;15.30;;;;;;;11.35;77.39;100829.34;5093252;28;20040;-48
2021/05/23 01:50:29;;;;;;;20.92;17.63;;;;;;;11.38;76.69;100839.72;5092342;28;20044;-48
2021/05/23 01:53:00;;;;;;;19.75;16.05;;;;;;;11.40;76.99;100839.44;5094342;28;20441;-50
2021/05/23 01:55:29;;;;;;;20.25;16.65;;;;;;;11.40;76.84;100839.44;5093985;28;20056;-49
2021/05/23 01:57:57;;;;;;;18.25;15.63;;;;;;;11.39;76.69;100841.34;5094037;28;20458;-49
2021/05/23 02:00:32;;;;;;;21.20;16.80;;;;;;;11.36;76.88;100847.34;5094084;28;20036;-48
2021/05/23 02:03:09;;;;;;;18.80;16.25;;;;;;;11.35;76.87;100844.88;5080544;28;20036;-49
2021/05/23 02:05:45;;;;;;;19.58;16.52;;;;;;;11.37;77.10;100845.44;5093923;28;20516;-49
2021/05/23 02:08:15;;;;;;;19.48;16.88;;;;;;;11.36;77.35;100844.63;5079428;28;20085;-50
2021/05/23 02:10:43;;;;;;;20.90;16.73;;;;;;;11.38;76.71;100849.81;5092104;28;20440;-48
2021/05/23 02:13:11;;;;;;;20.83;17.58;;;;;;;11.37;76.98;100840.78;5093496;28;20410;-48
2021/05/23 02:15:39;;;;;;;19.73;17.58;;;;;;;11.39;76.96;100844.06;5093530;28;20048;-48
2021/05/23 02:18:07;;;;;;;20.80;17.50;;;;;;;11.38;77.26;100850.63;5092449;28;20028;-49
2021/05/23 02:20:36;;;;;;;20.92;18.10;;;;;;;11.36;76.67;100850.09;5093836;28;20040;-50
2021/05/23 02:23:06;;;;;;;21.90;18.70;;;;;;;11.30;76.67;100846.53;5093415;28;20051;-49
2021/05/23 02:25:34;;;;;;;21.20;18.92;;;;;;;11.30;77.48;100853.88;5092074;28;20388;-49
2021/05/23 02:28:06;;;;;;;22.75;19.65;;;;;;;11.29;77.35;100847.63;5093175;28;20040;-49
2021/05/23 02:30:37;;;;;;;22.13;19.63;;;;;;;11.30;77.53;100848.44;5093103;28;20089;-48
2021/05/23 02:33:06;;;;;;;24.42;19.50;;;;;;;11.33;77.44;100847.06;5092987;28;20048;-49
2021/05/23 02:35:36;;;;;;;23.30;19.90;;;;;;;11.33;77.32;100845.19;5093161;28;20040;-50
2021/05/23 02:38:05;;;;;;;24.58;20.15;;;;;;;11.34;77.08;100844.06;5093282;28;20044;-48
2021/05/23 02:40:33;;;;;;;23.60;20.95;;;;;;;11.33;77.02;100853.38;5092862;28;20121;-48
2021/05/23 02:43:02;;;;;;;24.60;20.35;;;;;;;11.33;77.58;100853.38;5093554;28;20036;-49
2021/05/23 02:45:30;;;;;;;22.00;19.60;;;;;;;11.34;77.16;100860.44;5093239;28;20074;-51
2021/05/23 02:47:57;;;;;;;23.83;20.48;;;;;;;11.32;76.83;100850.91;5078498;28;20032;-50
2021/05/23 02:50:27;;;;;;;23.95;19.55;;;;;;;11.31;76.71;100852.81;5093035;28;20051;-49
2021/05/23 02:52:56;;;;;;;26.90;21.40;;;;;;;11.31;77.14;100855.53;5092996;28;20074;-49
2021/05/23 02:55:24;;;;;;;23.42;20.33;;;;;;;11.32;76.59;100857.16;5092804;28;20070;-49
2021/05/23 02:57:52;;;;;;;22.52;20.10;;;;;;;11.30;76.49;100856.59;5092800;28;20109;-49
2021/05/23 03:00:22;;;;;;;24.65;20.67;;;;;;;11.32;77.21;100850.91;5092945;28;20048;-50
2021/05/23 03:02:50;;;;;;;23.67;20.15;;;;;;;11.32;76.61;100859.88;5092361;28;20036;-52
2021/05/23 03:05:21;;;;;;;24.23;20.75;;;;;;;11.28;77.08;100861.50;5092674;28;20048;-50
2021/05/23 03:07:52;;;;;;;23.17;19.95;;;;;;;11.27;76.83;100860.69;5092712;28;20048;-49
2021/05/23 03:10:23;;;;;;;23.08;19.38;;;;;;;11.29;77.39;100863.16;5092535;28;20115;-50
2021/05/23 03:12:51;;;;;;;24.15;19.73;;;;;;;11.30;76.89;100865.63;5091561;28;20055;-49
2021/05/23 03:15:21;;;;;;;22.33;19.88;;;;;;;11.31;77.18;100863.72;5092915;28;20040;-49
2021/05/23 03:17:50;;;;;;;22.88;19.30;;;;;;;11.33;77.03;100867.00;5092143;28;20040;-49
2021/05/23 03:20:18;;;;;;;23.35;17.83;;;;;;;11.35;76.56;100864.78;5092264;28;20514;-48
2021/05/23 03:22:50;;;;;;;24.45;19.33;;;;;;;11.35;76.95;100872.97;5092452;28;20070;-49
2021/05/23 03:25:18;;;;;;;21.65;18.45;;;;;;;11.33;77.11;100885.25;5092172;28;20071;-48
2021/05/23 03:27:46;;;;;;;21.13;18.15;;;;;;;11.32;76.79;100884.44;5092587;28;20040;-48
2021/05/23 03:30:16;;;;;;;20.85;18.65;;;;;;;11.34;77.23;100876.81;5091826;28;20563;-52
2021/05/23 03:32:44;;;;;;;20.23;15.75;;;;;;;11.35;76.92;100883.88;5092190;28;20486;-48
2021/05/23 03:35:12;;;;;;;18.63;15.13;;;;;;;11.35;77.26;100883.88;5091850;28;20048;-51
2021/05/23 03:37:40;;;;;;;20.30;15.80;;;;;;;11.32;76.83;100889.91;5092692;28;20068;-52
2021/05/23 03:40:11;;;;;;;17.63;14.32;;;;;;;11.34;77.29;100893.19;5092175;28;20509;-52
2021/05/23 03:42:38;;;;;;;16.05;14.32;;;;;;;11.35;77.23;100888.53;5092325;28;20036;-49
2021/05/23 03:45:08;;;;;;;19.38;15.38;;;;;;;11.34;76.54;100895.91;5091848;28;20048;-51
2021/05/23 03:47:36;;;;;;;17.80;15.05;;;;;;;11.36;76.82;100896.47;5092043;28;20055;-48
2021/05/23 03:50:06;;;;;;;17.90;13.98;;;;;;;11.37;76.68;100891.81;5091958;28;20044;-48
2021/05/23 03:52:34;;;;;;;16.67;12.68;;;;;;;11.39;77.04;100890.44;5092030;28;20048;-48
2021/05/23 03:55:02;;;;;;;16.75;12.55;;;;;;;11.41;76.87;100896.47;5091720;28;20063;-49
2021/05/23 03:57:30;;;;;;;18.67;15.02;;;;;;;11.39;76.95;100898.63;5091889;28;20028;-49
2021/05/23 03:59:59;;;;;;;16.05;13.07;;;;;;;11.38;77.21;100899.75;5091964;28;20127;-53
2021/05/23 04:02:27;;;;;;;18.77;14.73;;;;;;;11.38;76.93;100899.75;5092052;28;20089;-50
2021/05/23 04:04:57;;;;;;;17.90;12.50;;;;;;;11.37;76.99;100902.72;5090984;28;20040;-51
2021/05/23 04:07:26;;;;;;;16.98;13.00;;;;;;;11.38;76.85;100904.38;5091978;28;20036;-51
2021/05/23 04:09:56;;;;;;;20.77;13.60;;;;;;;11.36;76.87;100910.09;5090728;28;20463;-50
2021/05/23 04:14:52;;;;;;;15.68;12.18;;;;;;;11.36;77.03;100914.75;5091435;28;20040;-49
2021/05/23 04:17:20;;;;;;;15.77;11.93;;;;;;;11.34;77.01;100909.53;5091889;28;20684;-50
2021/05/23 04:19:47;;;;;;;16.52;11.27;;;;;;;11.35;77.23;100922.09;5091805;28;20036;-50
2021/05/23 04:22:15;;;;;;;15.15;10.98;;;;;;;11.33;76.93;100913.38;5091635;28;20102;-50
2021/05/23 04:24:43;;;;;;;13.23;9.48;;;;;;;11.35;76.87;100915.81;5091836;28;20048;-48
2021/05/23 04:27:11;;;;;;;12.77;9.25;;;;;;;11.36;76.31;100921.00;5091986;28;20471;-49
2021/05/23 04:29:39;;;;;;;13.45;8.15;;;;;;;11.34;77.04;100912.28;5091102;28;20090;-50
2021/05/23 04:32:08;;;;;;;14.00;9.00;;;;;;;11.33;77.00;100928.91;5091435;28;20039;-49
2021/05/23 04:34:36;;;;;;;10.82;7.65;;;;;;;11.32;76.61;100933.53;5091589;28;20077;-48
2021/05/23 04:37:05;;;;;;;16.85;9.25;;;;;;;11.32;76.62;100932.72;5091641;28;20097;-48
2021/05/23 04:39:33;;;;;;;12.65;8.35;;;;;;;11.29;76.69;100937.63;5091625;28;20493;-50
2021/05/23 04:42:01;;;;;;;17.02;8.35;;;;;;;11.30;77.00;100941.16;5093287;28;20109;-51
2021/05/23 04:44:49;;;;;;;14.98;8.15;;;;;;;11.31;76.76;100942.81;5095291;28;20046;-50
2021/05/23 04:47:17;;;;;;;14.25;7.20;;;;;;;11.32;76.61;100944.44;5095341;28;20443;-50
2021/05/23 04:49:44;;;;;;;12.77;6.43;;;;;;;11.30;76.37;100941.16;5095527;28;20047;-49
2021/05/23 04:52:13;;;;;;;13.93;7.53;;;;;;;11.29;76.33;100945.00;5095266;28;20032;-50
2021/05/23 04:54:42;;;;;;;13.70;6.93;;;;;;;11.30;76.61;100946.63;5093810;28;20100;-52
2021/05/23 04:57:09;;;;;;;13.57;6.25;;;;;;;11.28;76.23;100955.09;5095025;28;20063;-50
2021/05/23 04:59:37;;;;;;;13.73;6.45;;;;;;;11.32;76.47;100960.00;5095216;28;20055;-51
2021/05/23 05:02:05;;;;;;;10.80;5.35;;;;;;;11.33;76.13;100957.03;5095221;28;20068;-49
2021/05/23 05:04:33;;;;;;;12.43;5.70;;;;;;;11.32;75.61;100957.28;5094822;28;20040;-49
2021/05/23 05:07:00;;;;;;;10.77;5.45;;;;;;;11.31;75.93;100959.19;5093751;28;20040;-49
2021/05/23 05:09:28;;;;;;;11.73;5.22;;;;;;;11.32;75.57;100960.81;5094750;28;20036;-50
2021/05/23 05:11:55;;;;;;;14.02;6.03;;;;;;;11.32;75.77;100966.28;5094194;28;20047;-48
2021/05/23 05:14:23;;;;;;;12.63;5.22;;;;;;;11.34;75.42;100963.28;5094624;28;20043;-50
2021/05/23 05:16:51;;;;;;;14.65;5.00;;;;;;;11.29;75.20;100964.91;5094516;28;20247;-51
2021/05/23 05:19:19;;;;;;;11.63;4.45;;;;;;;11.30;75.60;100968.44;5094022;28;20443;-48
2021/05/23 05:21:46;;;;;;;10.23;4.63;;;;;;;11.30;75.43;100974.75;5094201;28;20089;-49
2021/05/23 05:24:14;;;;;;;13.13;4.05;;;;;;;11.30;75.24;100968.44;5093727;28;20036;-49
2021/05/23 05:26:42;;;;;;;13.32;5.03;;;;;;;11.30;74.83;100973.91;5093424;28;20059;-48
2021/05/23 05:29:10;;;;;;;17.88;3.95;;;;;;;11.32;75.18;100973.66;5094263;28;20040;-49
2021/05/23 05:31:37;;;;;;;10.90;3.65;;;;;;;11.32;75.01;100974.47;5093773;28;20116;-48
2021/05/23 05:34:05;;;;;;;15.43;4.40;;;;;;;11.31;74.19;100978.28;5093793;28;20040;-49
2021/05/23 05:36:32;;;;;;;11.73;3.65;;;;;;;11.27;74.65;100982.63;5094167;28;20043;-50
2021/05/23 05:39:00;;;;;;;11.00;4.05;;;;;;;11.26;74.01;100972.81;5093516;28;20040;-47
2021/05/23 05:41:28;;;;;;;11.38;3.78;;;;;;;11.27;74.23;100988.09;5092993;28;20040;-48
2021/05/23 05:43:55;;;;;;;14.40;3.95;;;;;;;11.28;73.58;100992.44;5093436;28;20121;-49
2021/05/23 05:46:23;;;;;;;14.70;3.63;;;;;;;11.27;73.67;100991.63;5092201;28;20076;-51
2021/05/23 05:48:51;;;;;;;14.57;3.78;;;;;;;11.32;74.12;100988.09;5085057;28;20051;-49
2021/05/23 05:51:19;;;;;;;14.45;3.70;;;;;;;11.33;72.99;100989.75;5093214;28;20044;-54
2021/05/23 05:53:46;;;;;;;13.05;3.30;;;;;;;11.32;73.28;101001.72;5093112;28;20051;-52
2021/05/23 05:56:14;;;;;;;12.23;3.40;;;;;;;11.32;72.98;101000.94;5092586;28;20044;-53
2021/05/23 05:58:42;;;;;;;14.20;3.83;;;;;;;11.38;72.97;100997.13;5093463;28;20505;-49
2021/05/23 06:01:09;;;;;;;12.68;3.78;;;;;;;11.41;71.99;101008.31;5092976;28;20100;-50
2021/05/23 06:03:37;;;;;;;8.95;3.15;;;;;;;11.36;72.45;101004.75;5093301;28;20047;-51
2021/05/23 06:06:05;;;;;;;13.77;3.58;;;;;;;11.33;72.55;101005.28;5092695;28;20048;-48
2021/05/23 06:08:33;;;;;;;13.88;3.55;;;;;;;11.41;73.07;101013.78;5092517;28;20040;-51
2021/05/23 06:11:00;;;;;;;10.07;3.47;;;;;;;11.34;72.58;101012.38;5092501;28;20052;-50
2021/05/23 06:13:28;;;;;;;10.55;3.42;;;;;;;11.34;73.27;101018.66;5092696;28;20058;-51
2021/05/23 06:15:55;;;;;;;15.40;4.57;;;;;;;11.34;72.13;101023.31;5092092;28;20113;-49
2021/05/23 06:18:25;;;;;;;13.13;3.50;;;;;;;11.23;71.55;101023.28;5092269;28;20444;-50
2021/05/23 06:20:53;;;;;;;13.23;3.83;;;;;;;11.18;72.42;101020.50;5092758;28;20039;-51
2021/05/23 06:23:21;;;;;;;11.57;3.67;;;;;;;11.19;71.79;101022.16;5091337;28;20052;-49
2021/05/23 06:25:49;;;;;;;11.90;3.40;;;;;;;11.20;71.15;101029.25;5092445;28;20498;-49
2021/05/23 06:28:17;;;;;;;15.55;3.55;;;;;;;11.16;70.44;101035.50;5092137;28;20048;-49
2021/05/23 06:30:45;;;;;;;16.48;4.20;;;;;;;11.13;71.04;101038.75;5092857;28;20040;-49
2021/05/23 06:33:12;;;;;;;15.75;3.53;;;;;;;11.13;70.92;101036.03;5092381;28;20105;-48
2021/05/23 06:35:40;;;;;;;12.82;3.78;;;;;;;11.14;71.43;101043.16;5092345;28;20047;-50
2021/05/23 06:38:08;;;;;;;12.85;3.63;;;;;;;11.21;71.08;101051.91;5092083;28;20071;-49
2021/05/23 06:40:35;;;;;;;11.55;3.33;;;;;;;11.25;70.24;101053.81;5091956;28;20040;-50
2021/05/23 06:43:03;;;;;;;12.68;3.38;;;;;;;11.18;70.15;101052.41;5092386;28;20490;-54
2021/05/23 06:45:31;;;;;;;14.02;3.38;;;;;;;11.20;70.43;101053.78;5092196;28;20048;-49
2021/05/23 06:47:59;;;;;;;13.38;3.65;;;;;;;11.13;70.01;101049.69;5092547;28;20490;-48
2021/05/23 06:50:29;;;;;;;7.90;2.67;;;;;;;11.14;70.58;101062.25;5090984;28;20036;-54
2021/05/23 06:52:57;;;;;;;15.65;3.58;;;;;;;11.15;70.34;101066.59;5092518;28;20048;-54
2021/05/23 06:55:25;;;;;;;9.10;2.65;;;;;;;11.19;70.12;101065.81;5092063;28;20097;-53
2021/05/23 06:57:52;;;;;;;10.60;3.17;;;;;;;11.22;69.67;101069.91;5092249;28;20491;-53
2021/05/23 07:00:21;;;;;;;10.52;3.15;;;;;;;11.26;69.77;101073.75;5092247;28;20125;-55
2021/05/23 07:02:49;;;;;;;11.82;3.42;;;;;;;11.24;69.60;101074.00;5091579;28;20036;-53
2021/05/23 07:05:17;;;;;;;11.32;3.00;;;;;;;11.19;69.22;101076.72;5091937;28;20065;-51
2021/05/23 07:07:47;;;;;;;11.63;3.10;;;;;;;11.20;69.57;101082.97;5091811;28;20044;-53
2021/05/23 07:10:14;;;;;;;7.80;2.72;;;;;;;11.49;72.10;101084.19;5090539;28;20039;-49
2021/05/23 07:12:42;;;;;;;11.98;3.30;;;;;;;11.57;70.13;101082.03;5091616;28;20100;-53
2021/05/23 07:15:10;;;;;;;8.95;3.15;;;;;;;11.56;69.65;101085.84;5091704;28;20040;-48
2021/05/23 07:17:38;;;;;;;15.00;3.70;;;;;;;11.41;68.63;101078.44;5091147;28;20040;-50
2021/05/23 07:20:06;;;;;;;12.25;3.65;;;;;;;11.35;68.74;101083.03;5091607;28;20032;-49
2021/05/23 07:22:34;;;;;;;9.43;2.78;;;;;;;11.55;70.48;101086.94;5091436;28;20551;-49
2021/05/23 07:25:02;;;;;;;12.73;3.42;;;;;;;11.50;68.39;101087.75;5091337;28;20402;-49
2021/05/23 07:27:30;;;;;;;15.18;3.42;;;;;;;11.45;67.91;101085.81;5091793;28;20036;-50
2021/05/23 07:29:59;;;;;;;12.73;3.55;;;;;;;11.45;67.80;101095.94;5073322;28;20051;-50
2021/05/23 07:32:26;;;;;;;11.77;3.42;;;;;;;11.47;68.11;101100.03;5091468;28;20036;-49
2021/05/23 07:34:54;;;;;;;13.52;3.33;;;;;;;11.50;68.14;101085.84;5091538;28;20413;-49
2021/05/23 07:37:21;;;;;;;14.05;4.00;;;;;;;11.50;67.61;101098.66;5090842;28;20093;-49
2021/05/23 07:39:49;;;;;;;12.85;3.20;;;;;;;11.47;67.59;101097.28;5091293;28;20437;-49
2021/05/23 07:42:17;;;;;;;12.23;3.78;;;;;;;11.44;67.65;101089.63;5090542;28;20032;-49
2021/05/23 07:44:49;;;;;;;13.07;4.25;;;;;;;11.38;67.97;101103.53;5091768;28;20067;-51
2021/05/23 07:47:17;;;;;;;15.70;3.65;;;;;;;11.30;68.12;101111.13;5091042;28;20769;-50
2021/05/23 07:49:44;;;;;;;13.65;3.65;;;;;;;11.22;67.88;101116.25;5089980;28;20052;-50
2021/05/23 07:52:13;;;;;;;12.35;3.78;;;;;;;11.20;67.98;101110.25;5090737;28;20476;-50
2021/05/23 07:54:41;;;;;;;10.98;3.95;;;;;;;11.19;67.81;101116.81;5091106;28;20149;-48
2021/05/23 07:57:10;;;;;;;15.02;4.90;;;;;;;11.34;67.85;101110.59;5090719;28;20056;-49
2021/05/23 07:59:38;;;;;;;13.85;4.40;;;;;;;11.45;66.35;101123.22;5090609;28;20040;-50
2021/05/23 08:02:06;;;;;;;26.00;6.00;;;;;;;11.55;66.83;101117.78;5090998;28;20093;-46
2021/05/23 08:04:34;;;;;;;12.13;3.60;;;;;;;11.61;65.38;101124.06;5090842;28;20094;-50
2021/05/23 08:07:02;;;;;;;20.50;6.28;;;;;;;11.57;65.36;101131.97;5090990;28;20044;-49
2021/05/23 08:09:30;;;;;;;10.15;3.78;;;;;;;11.58;65.69;101128.16;5089449;28;20036;-50
2021/05/23 08:11:58;;;;;;;16.83;4.72;;;;;;;11.78;67.19;101119.22;5090906;28;20097;-49
2021/05/23 08:14:25;;;;;;;15.18;3.70;;;;;;;11.74;64.81;101129.03;5091083;28;20047;-49
2021/05/23 08:16:53;;;;;;;23.25;6.63;;;;;;;11.80;71.36;101133.41;5093860;28;20189;-50
2021/05/23 08:19:21;;;;;;;14.77;4.57;;;;;;;12.09;66.57;101127.50;5094887;28;20100;-50
2021/05/23 08:21:49;;;;;;;12.80;3.38;;;;;;;12.01;64.20;101138.97;5094503;28;20047;-50
2021/05/23 08:24:16;;;;;;;9.43;3.22;;;;;;;11.90;61.95;101135.38;5095030;28;20055;-52
2021/05/23 08:26:44;;;;;;;10.77;3.40;;;;;;;11.80;62.27;101140.78;5094930;28;20055;-48
2021/05/23 08:29:12;;;;;;;15.48;3.28;;;;;;;11.78;62.33;101153.88;5095114;28;20036;-50
2021/05/23 08:31:40;;;;;;;24.00;6.28;;;;;;;11.86;65.32;101156.94;5094527;28;20502;-50
2021/05/23 08:34:07;;;;;;;14.70;4.32;;;;;;;11.98;62.67;101159.44;5095037;28;20405;-48
2021/05/23 08:36:35;;;;;;;16.02;5.15;;;;;;;11.94;61.86;101164.63;5094720;28;20040;-50
2021/05/23 08:39:04;;;;;;;18.67;5.15;;;;;;;11.89;61.62;101164.59;5094925;28;20105;-49
2021/05/23 08:41:32;;;;;;;9.50;3.05;;;;;;;11.92;61.25;101174.97;5093059;28;20449;-49
2021/05/23 08:43:59;;;;;;;11.63;3.35;;;;;;;11.98;63.15;101180.44;5094430;28;20048;-50
2021/05/23 08:46:31;;;;;;;9.05;3.08;;;;;;;11.93;58.52;101179.38;5094416;28;20056;-50
2021/05/23 08:49:00;;;;;;;15.27;4.50;;;;;;;11.99;61.48;101174.72;5094172;28;20040;-51
2021/05/23 08:51:28;;;;;;;22.27;6.80;;;;;;;12.14;63.62;101176.69;5094166;28;20492;-49
2021/05/23 08:53:56;;;;;;;13.20;3.55;;;;;;;12.10;58.27;101181.88;5094691;28;20043;-50
2021/05/23 08:56:24;;;;;;;12.15;3.35;;;;;;;12.14;57.45;101191.16;5093903;28;20063;-52
2021/05/23 08:58:51;;;;;;;11.05;3.17;;;;;;;12.18;57.35;101183.25;5094720;28;20043;-49
2021/05/23 09:01:29;;;;;;;10.80;3.38;;;;;;;12.18;57.86;101194.19;5094327;28;20055;-49
2021/05/23 09:04:01;;;;;;;10.88;3.10;;;;;;;12.11;57.21;101196.34;5092423;28;20052;-49
2021/05/23 09:06:34;;;;;;;9.63;2.95;;;;;;;12.00;55.91;101202.84;5093153;28;20429;-50
2021/05/23 09:09:08;;;;;;;11.18;3.05;;;;;;;11.97;57.00;101195.22;5093933;28;20074;-51
2021/05/23 09:11:51;;;;;;;9.23;3.05;;;;;;;12.09;57.54;101207.53;5094212;28;20555;-50
2021/05/23 09:14:36;;;;;;;15.43;4.35;;;;;;;12.14;57.84;101213.00;5094155;28;20059;-50
2021/05/23 09:17:05;;;;;;;7.20;2.60;;;;;;;12.15;57.38;101216.56;5093788;28;20071;-50
2021/05/23 09:19:41;;;;;;;11.57;3.17;;;;;;;12.17;55.95;101222.59;5093285;28;20040;-49
2021/05/23 09:22:13;;;;;;;14.15;3.85;;;;;;;12.04;57.21;101223.09;5080459;28;20040;-51
2021/05/23 09:24:52;;;;;;;10.25;3.63;;;;;;;11.97;56.75;101222.53;5094122;28;20052;-48
2021/05/23 09:27:26;;;;;;;14.48;3.63;;;;;;;11.99;57.17;101212.97;5080481;28;20044;-48
2021/05/23 09:30:23;;;;;;;14.90;5.03;;;;;;;12.15;59.59;101228.31;5093725;28;20040;-50
2021/05/23 09:32:51;;;;;;;13.57;3.55;;;;;;;12.13;57.04;101222.31;5093049;28;20162;-49
2021/05/23 09:35:20;;;;;;;12.13;3.47;;;;;;;12.24;56.28;101235.97;5093346;28;20401;-49
2021/05/23 09:38:01;;;;;;;21.08;6.05;;;;;;;12.34;58.38;101230.56;5093850;28;20498;-49
2021/05/23 09:40:40;;;;;;;10.38;3.05;;;;;;;12.21;55.81;101234.59;5093291;28;20044;-48
2021/05/23 09:43:10;;;;;;;6.97;2.47;;;;;;;12.21;53.07;101237.34;5093765;28;20040;-50
2021/05/23 09:45:43;;;;;;;7.28;2.65;;;;;;;12.19;53.42;101228.59;5093092;28;20452;-50
2021/05/23 09:48:25;;;;;;;10.38;2.72;;;;;;;12.24;54.42;101234.09;5075139;28;20067;-48
2021/05/23 09:50:54;;;;;;;6.53;2.30;;;;;;;12.32;53.72;101233.56;5093125;28;20028;-48
2021/05/23 09:53:33;;;;;;;10.75;3.53;;;;;;;12.63;54.99;101225.41;5093282;28;20048;-50
2021/05/23 09:56:06;;;;;;;6.93;2.63;;;;;;;12.73;52.97;101244.56;5092778;28;20044;-50
2021/05/23 09:58:37;;;;;;;10.80;3.50;;;;;;;12.69;51.50;101240.72;5093495;28;20040;-50
2021/05/23 10:01:06;;;;;;;9.38;3.00;;;;;;;12.60;52.17;101242.34;5092894;28;20044;-50
2021/05/23 10:03:40;;;;;;;8.60;2.53;;;;;;;12.50;51.49;101236.88;5092558;28;20043;-48
2021/05/23 10:06:09;;;;;;;17.55;4.63;;;;;;;12.52;53.90;101245.63;5092931;28;20028;-49
2021/05/23 10:08:37;;;;;;;8.20;2.20;;;;;;;12.53;51.93;101247.25;5093435;28;20144;-52
2021/05/23 10:11:06;;;;;;;11.07;2.55;;;;;;;12.61;50.32;101244.00;5091380;28;20032;-50
2021/05/23 10:13:34;;;;;;;7.50;2.60;;;;;;;12.62;50.11;101258.47;5093017;28;20407;-50
2021/05/23 10:16:02;;;;;;;9.93;2.83;;;;;;;12.72;49.46;101259.34;5092370;28;20035;-50
2021/05/23 10:18:30;;;;;;;9.48;3.03;;;;;;;12.78;47.89;101252.75;5092574;28;20039;-50
2021/05/23 10:20:58;;;;;;;8.82;2.47;;;;;;;12.79;45.08;101257.16;5091590;28;20040;-49
2021/05/23 10:23:34;;;;;;;6.53;2.63;;;;;;;12.79;45.50;101259.03;5092771;28;20067;-50
2021/05/23 10:26:05;;;;;;;10.10;3.25;;;;;;;12.84;45.65;101274.63;5091889;28;20051;-50
2021/05/23 10:28:42;;;;;;;10.75;3.03;;;;;;;12.87;46.38;101263.16;5092922;28;20035;-50
2021/05/23 10:31:14;;;;;;;7.32;2.70;;;;;;;12.96;47.21;101264.25;5091990;28;20051;-50
2021/05/23 10:33:54;;;;;;;9.10;2.78;;;;;;;13.04;48.40;101252.78;5092534;28;20040;-53
2021/05/23 10:36:39;;;;;;;16.23;4.68;;;;;;;13.17;46.67;101273.28;5092331;28;20341;-52
2021/05/23 10:39:10;;;;;;;8.57;2.40;;;;;;;13.20;42.21;101272.72;5077653;28;20444;-50
2021/05/23 10:41:39;;;;;;;8.02;2.15;;;;;;;13.25;52.29;101263.69;5091092;28;20073;-51
2021/05/23 10:44:25;;;;;;;10.80;3.63;;;;;;;13.38;48.98;101263.19;5092278;28;20047;-50
2021/05/23 10:46:53;;;;;;;12.13;3.67;;;;;;;13.64;52.99;101256.56;5090212;28;20062;-50
2021/05/23 10:49:22;;;;;;;13.30;4.13;;;;;;;13.67;47.31;101268.88;5092325;28;20398;-49
2021/05/23 10:51:57;;;;;;;7.78;2.10;;;;;;;13.50;41.50;101260.16;5092240;28;20039;-51
2021/05/23 10:54:25;;;;;;;6.77;2.47;;;;;;;13.57;42.40;101258.75;5078088;28;20052;-50
2021/05/23 10:57:04;;;;;;;9.05;2.40;;;;;;;13.48;41.96;101251.41;5092263;28;20052;-50
2021/05/23 10:59:34;;;;;;;5.63;2.10;;;;;;;13.46;44.74;101264.53;5092208;28;20040;-51
2021/05/23 11:02:02;;;;;;;8.93;2.50;;;;;;;13.47;43.23;101260.69;5091856;28;20082;-53
2021/05/23 11:04:39;;;;;;;8.75;2.88;;;;;;;13.54;45.24;101255.75;5091883;28;20093;-51
2021/05/23 11:07:08;;;;;;;11.18;2.47;;;;;;;13.48;44.06;101265.91;5092418;28;20036;-51
2021/05/23 11:09:36;;;;;;;9.15;2.60;;;;;;;13.58;45.67;101268.59;4387963;28;10000316;-50
2021/05/23 11:12:08;;;;;;;8.27;2.78;;;;;;;13.50;46.18;101276.59;5089654;28;20436;-52
2021/05/23 11:14:36;;;;;;;7.03;2.55;;;;;;;13.41;45.60;101281.78;5089219;28;20048;-51
2021/05/23 11:17:10;;;;;;;11.10;2.92;;;;;;;13.33;46.30;101287.81;5087970;28;20101;-52
2021/05/23 11:19:38;;;;;;;6.43;2.70;;;;;;;13.33;46.53;101283.16;5088414;28;20051;-53
2021/05/23 11:22:06;;;;;;;8.90;2.70;;;;;;;13.39;44.47;101286.72;5089113;28;20086;-51
2021/05/23 11:24:35;;;;;;;8.63;2.53;;;;;;;13.32;43.19;101286.97;5089491;28;20066;-50
2021/05/23 11:27:13;;;;;;;10.02;2.70;;;;;;;13.30;45.39;101297.41;5089554;28;20040;-50
2021/05/23 11:29:53;;;;;;;7.82;2.50;;;;;;;13.26;48.86;101289.97;5088867;28;20040;-50